createdAt,value
2018-05-21T00:00:09.695Z,54.73
2018-05-21T00:01:09.661Z,54.56
2018-05-21T00:02:09.672Z,55.24
2018-05-21T00:03:09.672Z,54.3
2018-05-21T00:04:09.695Z,53.86
2018-05-21T00:05:09.688Z,54.53
2018-05-21T00:06:09.699Z,55.27
2018-05-21T00:07:09.698Z,53.67
2018-05-21T00:08:09.690Z,54.1
2018-05-21T00:09:09.697Z,53.73
2018-05-21T00:10:09.682Z,54.3
2018-05-21T00:11:09.790Z,54.33
2018-05-21T00:12:09.672Z,54.27
2018-05-21T00:13:09.701Z,54.84
2018-05-21T00:14:09.665Z,53.42
2018-05-21T00:15:09.717Z,54.28
2018-05-21T00:16:09.702Z,54.96
2018-05-21T00:17:09.687Z,54.68
2018-05-21T00:18:09.680Z,54.49
2018-05-21T00:19:09.680Z,53.81
2018-05-21T00:20:09.694Z,55.03
2018-05-21T00:21:09.826Z,54.62
2018-05-21T00:22:09.700Z,55.53
2018-05-21T00:23:09.706Z,55.36
2018-05-21T00:24:09.677Z,55.14
2018-05-21T00:25:09.681Z,54.59
2018-05-21T00:26:09.683Z,55.05
2018-05-21T00:27:09.691Z,54.5
2018-05-21T00:28:09.701Z,53.84
2018-05-21T00:29:09.707Z,53.9
2018-05-21T00:30:09.694Z,55.62
2018-05-21T00:31:09.727Z,54.97
2018-05-21T00:32:09.717Z,54.74
2018-05-21T00:33:09.688Z,54.17
2018-05-21T00:34:09.695Z,54.29
2018-05-21T00:35:09.745Z,54.13
2018-05-21T00:36:09.694Z,54.34
2018-05-21T00:37:09.703Z,54.65
2018-05-21T00:38:09.683Z,53.52
2018-05-21T00:39:09.719Z,53.79
2018-05-21T00:40:09.685Z,54.16
2018-05-21T00:41:09.702Z,54.17
2018-05-21T00:42:09.682Z,54.44
2018-05-21T00:43:09.681Z,53.89
2018-05-21T00:44:09.711Z,54.57
2018-05-21T00:45:09.773Z,53.9
2018-05-21T00:46:09.687Z,52.7
2018-05-21T00:47:09.691Z,53.05
2018-05-21T00:48:09.689Z,53.13
2018-05-21T00:49:09.722Z,53.38
2018-05-21T00:50:09.715Z,53.51
2018-05-21T00:51:09.743Z,52.87
2018-05-21T00:52:09.704Z,53.32
2018-05-21T00:53:09.801Z,53.65
2018-05-21T00:54:09.726Z,52.86
2018-05-21T00:55:09.734Z,52.9
2018-05-21T00:56:09.787Z,53.53
2018-05-21T00:57:09.704Z,52.96
2018-05-21T00:58:10.010Z,53.26
2018-05-21T00:59:09.809Z,53.9
2018-05-21T01:00:09.717Z,52.9
2018-05-21T01:01:09.910Z,53.35
2018-05-21T01:02:09.727Z,53.33
2018-05-21T01:03:09.715Z,53.2
2018-05-21T01:04:09.704Z,53.26
2018-05-21T01:05:09.770Z,53.52
2018-05-21T01:06:09.701Z,52.91
2018-05-21T01:07:09.859Z,52.74
2018-05-21T01:08:09.712Z,52.8
2018-05-21T01:09:09.890Z,53.37
2018-05-21T01:10:09.762Z,53.4
2018-05-21T01:11:09.805Z,53.15
2018-05-21T01:12:09.702Z,52.03
2018-05-21T01:13:09.734Z,52.71
2018-05-21T01:14:09.709Z,52.72
2018-05-21T01:15:09.899Z,52.29
2018-05-21T01:16:09.757Z,52.54
2018-05-21T01:17:09.716Z,52.47
2018-05-21T01:18:09.701Z,52.03
2018-05-21T01:19:09.904Z,52.63
2018-05-21T01:20:09.955Z,53.36
2018-05-21T01:21:09.718Z,52.32
2018-05-21T01:22:09.742Z,52
2018-05-21T01:23:09.723Z,51.81
2018-05-21T01:24:09.880Z,52.25
2018-05-21T01:25:09.773Z,52.29
2018-05-21T01:26:09.797Z,53.11
2018-05-21T01:27:09.730Z,52.5
2018-05-21T01:28:09.710Z,52.56
2018-05-21T01:29:09.709Z,53.06
2018-05-21T01:30:09.723Z,52.54
2018-05-21T01:31:09.719Z,52.61
2018-05-21T01:32:09.725Z,52.58
2018-05-21T01:33:09.835Z,52.48
2018-05-21T01:34:09.699Z,52.06
2018-05-21T01:35:09.731Z,52.31
2018-05-21T01:36:09.704Z,51.81
2018-05-21T01:37:09.721Z,51.77
2018-05-21T01:38:09.704Z,52.36
2018-05-21T01:39:09.712Z,52.68
2018-05-21T01:40:09.709Z,52.13
2018-05-21T01:41:09.718Z,53.04
2018-05-21T01:42:09.723Z,52.11
2018-05-21T01:43:09.750Z,52.59
2018-05-21T01:44:09.756Z,52.49
2018-05-21T01:45:09.728Z,52.2
2018-05-21T01:46:09.700Z,52.29
2018-05-21T01:47:09.728Z,52.47
2018-05-21T01:48:09.715Z,52.67
2018-05-21T01:49:09.739Z,53.09
2018-05-21T01:50:09.730Z,51.94
2018-05-21T01:51:09.743Z,52.93
2018-05-21T01:52:09.716Z,53.35
2018-05-21T01:53:09.719Z,53.1
2018-05-21T01:54:09.714Z,53.22
2018-05-21T01:55:09.745Z,53.16
2018-05-21T01:56:10.000Z,52.97
2018-05-21T01:57:09.861Z,52.79
2018-05-21T01:58:09.799Z,52.58
2018-05-21T01:59:09.760Z,53.18
2018-05-21T02:00:09.714Z,53.71
2018-05-21T02:01:09.728Z,52.97
2018-05-21T02:02:09.857Z,52.99
2018-05-21T02:03:09.768Z,53.37
2018-05-21T02:04:09.725Z,52.93
2018-05-21T02:05:09.840Z,52.69
2018-05-21T02:06:09.737Z,53.11
2018-05-21T02:07:09.865Z,53.14
2018-05-21T02:08:09.856Z,52.64
2018-05-21T02:09:09.724Z,53.14
2018-05-21T02:10:09.734Z,52.72
2018-05-21T02:11:09.886Z,52.96
2018-05-21T02:12:09.739Z,53.8
2018-05-21T02:13:09.766Z,53.09
2018-05-21T02:14:09.809Z,53.53
2018-05-21T02:15:09.817Z,53.67
2018-05-21T02:16:09.898Z,53.4
2018-05-21T02:17:09.737Z,53.03
2018-05-21T02:18:09.870Z,53.7
2018-05-21T02:19:09.842Z,53.05
2018-05-21T02:20:09.805Z,52.77
2018-05-21T02:21:09.871Z,53.27
2018-05-21T02:22:09.858Z,53.62
2018-05-21T02:23:10.277Z,53.14
2018-05-21T02:24:09.767Z,53.23
2018-05-21T02:25:09.741Z,52.82
2018-05-21T02:26:09.733Z,53.32
2018-05-21T02:27:09.872Z,52.56
2018-05-21T02:28:09.877Z,53.11
2018-05-21T02:29:09.811Z,53.03
2018-05-21T02:30:09.781Z,53.69
2018-05-21T02:31:09.746Z,53.04
2018-05-21T02:32:09.811Z,53.39
2018-05-21T02:33:09.850Z,53.16
2018-05-21T02:34:09.752Z,53.04
2018-05-21T02:35:09.867Z,52.87
2018-05-21T02:36:09.870Z,52.58
2018-05-21T02:37:09.828Z,53
2018-05-21T02:38:09.776Z,52.93
2018-05-21T02:39:09.853Z,52.5
2018-05-21T02:40:09.750Z,53
2018-05-21T02:41:09.850Z,52.86
2018-05-21T02:42:09.747Z,53.03
2018-05-21T02:43:09.797Z,53.22
2018-05-21T02:44:09.768Z,53.35
2018-05-21T02:45:10.021Z,53.76
2018-05-21T02:46:09.782Z,53.56
2018-05-21T02:47:09.757Z,53.38
2018-05-21T02:48:09.741Z,53.37
2018-05-21T02:49:09.748Z,53.13
2018-05-21T02:50:09.801Z,53.29
2018-05-21T02:51:09.760Z,53.52
2018-05-21T02:52:09.747Z,53.06
2018-05-21T02:53:09.774Z,53.59
2018-05-21T02:54:09.785Z,53.6
2018-05-21T02:55:09.750Z,53.25
2018-05-21T02:56:09.757Z,53.49
2018-05-21T02:57:09.849Z,53.89
2018-05-21T02:58:09.771Z,53.49
2018-05-21T02:59:09.761Z,53.27
2018-05-21T03:00:09.735Z,53.49
2018-05-21T03:01:09.753Z,53.74
2018-05-21T03:02:09.759Z,54.33
2018-05-21T03:03:09.750Z,53.42
2018-05-21T03:04:09.757Z,53.5
2018-05-21T03:05:09.755Z,53.8
2018-05-21T03:06:09.771Z,53.68
2018-05-21T03:07:09.832Z,53.92
2018-05-21T03:08:09.874Z,54
2018-05-21T03:09:09.832Z,54.38
2018-05-21T03:10:09.770Z,54.2
2018-05-21T03:11:09.775Z,53.88
2018-05-21T03:12:09.779Z,53.78
2018-05-21T03:13:09.931Z,54.13
2018-05-21T03:14:09.864Z,54.37
2018-05-21T03:15:09.789Z,54.03
2018-05-21T03:16:09.884Z,54.15
2018-05-21T03:17:09.818Z,54.3
2018-05-21T03:18:09.762Z,54.41
2018-05-21T03:19:09.868Z,54.31
2018-05-21T03:20:09.758Z,54.57
2018-05-21T03:21:09.810Z,54.18
2018-05-21T03:22:09.766Z,54.66
2018-05-21T03:23:09.785Z,54.13
2018-05-21T03:24:09.916Z,53.96
2018-05-21T03:25:09.777Z,54.34
2018-05-21T03:26:09.796Z,54.58
2018-05-21T03:27:09.854Z,54.17
2018-05-21T03:28:09.809Z,54.33
2018-05-21T03:29:09.873Z,54.54
2018-05-21T03:30:09.773Z,54.51
2018-05-21T03:31:09.882Z,54.29
2018-05-21T03:32:09.902Z,54.74
2018-05-21T03:33:09.828Z,54.29
2018-05-21T03:34:09.859Z,54.7
2018-05-21T03:35:09.914Z,54.55
2018-05-21T03:36:09.886Z,55.03
2018-05-21T03:37:09.765Z,54.64
2018-05-21T03:38:09.864Z,54.73
2018-05-21T03:39:09.880Z,54.71
2018-05-21T03:40:09.853Z,54.58
2018-05-21T03:41:09.820Z,54.96
2018-05-21T03:42:09.807Z,54.97
2018-05-21T03:43:09.856Z,55.05
2018-05-21T03:44:09.823Z,54.8
2018-05-21T03:45:09.909Z,54.95
2018-05-21T03:46:09.759Z,55.14
2018-05-21T03:47:09.819Z,54.92
2018-05-21T03:48:09.814Z,55.31
2018-05-21T03:49:09.893Z,54.93
2018-05-21T03:50:09.816Z,55.29
2018-05-21T03:51:09.794Z,55.42
2018-05-21T03:52:09.779Z,55.65
2018-05-21T03:53:09.840Z,55.27
2018-05-21T03:54:09.894Z,55.33
2018-05-21T03:55:09.859Z,55.38
2018-05-21T03:56:09.852Z,55.5
2018-05-21T03:57:09.802Z,55.79
2018-05-21T03:58:09.779Z,55.7
2018-05-21T03:59:09.800Z,55.59
2018-05-21T04:00:09.779Z,55.65
2018-05-21T04:01:09.790Z,55.83
2018-05-21T04:02:09.766Z,55.8
2018-05-21T04:03:09.780Z,55.85
2018-05-21T04:04:09.806Z,55.55
2018-05-21T04:05:09.779Z,56.2
2018-05-21T04:06:09.771Z,55.89
2018-05-21T04:07:09.974Z,56
2018-05-21T04:08:09.790Z,55.97
2018-05-21T04:09:09.785Z,55.85
2018-05-21T04:10:09.793Z,55.9
2018-05-21T04:11:09.778Z,56.05
2018-05-21T04:12:09.804Z,56.24
2018-05-21T04:13:09.812Z,55.95
2018-05-21T04:14:09.797Z,56.51
2018-05-21T04:15:09.818Z,56.16
2018-05-21T04:16:09.775Z,56.31
2018-05-21T04:17:09.789Z,56.38
2018-05-21T04:18:09.781Z,56.59
2018-05-21T04:19:09.823Z,56.47
2018-05-21T04:20:09.845Z,56.63
2018-05-21T04:21:09.912Z,56.52
2018-05-21T04:22:09.792Z,56.78
2018-05-21T04:23:09.918Z,56.84
2018-05-21T04:24:09.948Z,56.85
2018-05-21T04:25:09.890Z,57.2
2018-05-21T04:26:09.845Z,57.29
2018-05-21T04:27:09.990Z,57.02
2018-05-21T04:28:09.894Z,56.78
2018-05-21T04:29:09.814Z,57.28
2018-05-21T04:30:09.843Z,57.37
2018-05-21T04:31:09.879Z,57.04
2018-05-21T04:32:09.874Z,57.26
2018-05-21T04:33:09.875Z,57.55
2018-05-21T04:34:09.901Z,57.19
2018-05-21T04:35:09.872Z,57.4
2018-05-21T04:36:09.855Z,57.68
2018-05-21T04:37:09.906Z,57.54
2018-05-21T04:38:10.013Z,58.01
2018-05-21T04:39:09.919Z,57.67
2018-05-21T04:40:09.917Z,57.6
2018-05-21T04:41:09.858Z,57.88
2018-05-21T04:42:09.818Z,57.83
2018-05-21T04:43:09.904Z,58.18
2018-05-21T04:44:09.938Z,57.92
2018-05-21T04:45:09.946Z,58.13
2018-05-21T04:46:09.898Z,58.52
2018-05-21T04:47:09.953Z,58.67
2018-05-21T04:48:09.830Z,58.2
2018-05-21T04:49:09.813Z,58.43
2018-05-21T04:50:09.983Z,58.53
2018-05-21T04:51:09.879Z,58.68
2018-05-21T04:52:09.891Z,58.82
2018-05-21T04:53:09.817Z,58.96
2018-05-21T04:54:09.814Z,59.27
2018-05-21T04:55:09.880Z,58.67
2018-05-21T04:56:09.882Z,58.84
2018-05-21T04:57:09.926Z,59.3
2018-05-21T04:58:09.834Z,59.08
2018-05-21T04:59:09.924Z,59.16
2018-05-21T05:00:09.920Z,59.03
2018-05-21T05:01:09.812Z,59.21
2018-05-21T05:02:09.869Z,59.3
2018-05-21T05:03:09.870Z,59.38
2018-05-21T05:04:09.830Z,58.97
2018-05-21T05:05:09.933Z,59.49
2018-05-21T05:06:09.864Z,59.53
2018-05-21T05:07:09.913Z,59.35
2018-05-21T05:08:09.810Z,59.43
2018-05-21T05:09:09.852Z,59.71
2018-05-21T05:10:09.826Z,60.08
2018-05-21T05:11:09.825Z,60.18
2018-05-21T05:12:09.809Z,60.16
2018-05-21T05:13:09.816Z,60.4
2018-05-21T05:14:09.857Z,60.45
2018-05-21T05:15:09.885Z,59.9
2018-05-21T05:16:09.835Z,60.06
2018-05-21T05:17:09.844Z,60.26
2018-05-21T05:18:09.830Z,60.37
2018-05-21T05:19:09.817Z,59.99
2018-05-21T05:20:09.815Z,59.95
2018-05-21T05:21:09.878Z,60.4
2018-05-21T05:22:09.875Z,60.26
2018-05-21T05:23:09.820Z,60.12
2018-05-21T05:24:09.887Z,59.96
2018-05-21T05:25:09.835Z,60.27
2018-05-21T05:26:09.833Z,60.17
2018-05-21T05:27:09.903Z,60.5
2018-05-21T05:28:09.884Z,61
2018-05-21T05:29:09.824Z,60.73
2018-05-21T05:30:09.868Z,60.35
2018-05-21T05:31:09.926Z,60.17
2018-05-21T05:32:09.835Z,60.66
2018-05-21T05:33:09.832Z,60.41
2018-05-21T05:34:09.874Z,60.44
2018-05-21T05:35:09.881Z,60.22
2018-05-21T05:36:09.874Z,60.65
2018-05-21T05:37:09.824Z,60.48
2018-05-21T05:38:09.817Z,60.44
2018-05-21T05:39:09.916Z,60.24
2018-05-21T05:40:09.893Z,60.8
2018-05-21T05:41:09.914Z,60.87
2018-05-21T05:42:09.955Z,60.57
2018-05-21T05:43:10.553Z,59.91
2018-05-21T05:44:09.911Z,60.24
2018-05-21T05:45:09.900Z,60.3
2018-05-21T05:46:09.881Z,60.88
2018-05-21T05:47:09.892Z,61.03
2018-05-21T05:48:09.843Z,61.22
2018-05-21T05:49:09.847Z,60.98
2018-05-21T05:50:09.861Z,60.68
2018-05-21T05:51:09.865Z,61.01
2018-05-21T05:52:09.905Z,61.27
2018-05-21T05:53:09.974Z,61.06
2018-05-21T05:54:09.848Z,61.12
2018-05-21T05:55:09.881Z,60.92
2018-05-21T05:56:09.933Z,60.8
2018-05-21T05:57:09.887Z,61.05
2018-05-21T05:58:09.913Z,61.14
2018-05-21T05:59:09.953Z,61.28
2018-05-21T06:00:09.873Z,61.16
2018-05-21T06:01:09.864Z,61.07
2018-05-21T06:02:09.879Z,61.38
2018-05-21T06:03:09.863Z,60.91
2018-05-21T06:04:09.896Z,61.12
2018-05-21T06:05:09.879Z,61.57
2018-05-21T06:06:09.874Z,61.14
2018-05-21T06:07:10.096Z,60.4
2018-05-21T06:08:09.876Z,60.47
2018-05-21T06:09:09.893Z,61.02
2018-05-21T06:10:09.890Z,60.59
2018-05-21T06:11:09.835Z,61.46
2018-05-21T06:12:09.835Z,60.98
2018-05-21T06:13:09.858Z,61.21
2018-05-21T06:14:09.859Z,61.34
2018-05-21T06:15:09.872Z,60.85
2018-05-21T06:16:09.862Z,61.25
2018-05-21T06:17:09.876Z,60.87
2018-05-21T06:18:09.846Z,60.56
2018-05-21T06:19:09.865Z,61.14
2018-05-21T06:20:09.872Z,61.16
2018-05-21T06:21:09.889Z,61.16
2018-05-21T06:22:09.869Z,61.14
2018-05-21T06:23:09.864Z,60.64
2018-05-21T06:24:09.880Z,60.91
2018-05-21T06:25:09.846Z,60.63
2018-05-21T06:26:09.884Z,60.33
2018-05-21T06:27:09.868Z,60.89
2018-05-21T06:28:09.856Z,61.11
2018-05-21T06:29:09.901Z,60.89
2018-05-21T06:30:09.868Z,60.25
2018-05-21T06:31:09.876Z,60.09
2018-05-21T06:32:09.871Z,60.51
2018-05-21T06:33:09.879Z,60.5
2018-05-21T06:34:10.093Z,60.84
2018-05-21T06:35:09.948Z,60.4
2018-05-21T06:36:09.872Z,60.19
2018-05-21T06:37:09.895Z,60.58
2018-05-21T06:38:09.888Z,60.5
2018-05-21T06:39:09.904Z,60.49
2018-05-21T06:40:09.945Z,60.19
2018-05-21T06:41:09.938Z,60.67
2018-05-21T06:42:09.874Z,60.64
2018-05-21T06:43:09.862Z,60.13
2018-05-21T06:44:10.779Z,60
2018-05-21T06:45:09.886Z,59.88
2018-05-21T06:46:09.855Z,60.02
2018-05-21T06:47:10.004Z,60.18
2018-05-21T06:48:09.944Z,60.42
2018-05-21T06:49:09.950Z,59.84
2018-05-21T06:50:09.910Z,60.44
2018-05-21T06:51:09.983Z,60.32
2018-05-21T06:52:10.022Z,60.1
2018-05-21T06:53:09.906Z,60.17
2018-05-21T06:54:09.943Z,59.97
2018-05-21T06:55:09.924Z,60.02
2018-05-21T06:56:09.922Z,60.37
2018-05-21T06:57:10.056Z,60.39
2018-05-21T06:58:09.873Z,60.45
2018-05-21T06:59:09.889Z,59.84
2018-05-21T07:00:09.959Z,60.09
2018-05-21T07:01:09.885Z,59.74
2018-05-21T07:02:09.895Z,60.17
2018-05-21T07:03:09.903Z,60.45
2018-05-21T07:04:10.010Z,60.49
2018-05-21T07:05:09.921Z,60.46
2018-05-21T07:06:09.899Z,60.71
2018-05-21T07:07:10.098Z,60.46
2018-05-21T07:08:09.930Z,60.21
2018-05-21T07:09:09.907Z,60.36
2018-05-21T07:10:09.910Z,60.04
2018-05-21T07:11:09.920Z,60.64
2018-05-21T07:12:10.029Z,60.96
2018-05-21T07:13:09.875Z,60.04
2018-05-21T07:14:09.944Z,60.27
2018-05-21T07:15:09.971Z,60.3
2018-05-21T07:16:10.012Z,60.43
2018-05-21T07:17:09.894Z,60.76
2018-05-21T07:18:09.990Z,59.98
2018-05-21T07:19:09.919Z,60.36
2018-05-21T07:20:09.917Z,60.73
2018-05-21T07:21:09.885Z,60.59
2018-05-21T07:22:09.933Z,59.77
2018-05-21T07:23:09.902Z,60.55
2018-05-21T07:24:09.909Z,60.81
2018-05-21T07:25:09.960Z,60.13
2018-05-21T07:26:09.897Z,59.86
2018-05-21T07:27:09.909Z,59.94
2018-05-21T07:28:09.929Z,61.02
2018-05-21T07:29:09.935Z,60.23
2018-05-21T07:30:09.879Z,60.39
2018-05-21T07:31:09.900Z,60.18
2018-05-21T07:32:09.958Z,59.68
2018-05-21T07:33:09.890Z,60.49
2018-05-21T07:34:09.909Z,59.97
2018-05-21T07:35:09.899Z,60.55
2018-05-21T07:36:09.891Z,59.82
2018-05-21T07:37:09.901Z,60.18
2018-05-21T07:38:09.890Z,59.67
2018-05-21T07:39:09.916Z,59.68
2018-05-21T07:40:09.908Z,60.27
2018-05-21T07:41:09.907Z,59.18
2018-05-21T07:42:09.926Z,59.02
2018-05-21T07:43:10.009Z,58.8
2018-05-21T07:44:09.878Z,58.82
2018-05-21T07:45:09.951Z,60.42
2018-05-21T07:46:09.943Z,58.67
2018-05-21T07:47:09.893Z,59.01
2018-05-21T07:48:10.080Z,59.64
2018-05-21T07:49:09.892Z,59.04
2018-05-21T07:50:09.926Z,59.26
2018-05-21T07:51:09.913Z,58.89
2018-05-21T07:52:09.920Z,58.1
2018-05-21T07:53:09.981Z,58.28
2018-05-21T07:54:09.893Z,58.11
2018-05-21T07:55:09.906Z,57.71
2018-05-21T07:56:10.118Z,58.43
2018-05-21T07:57:09.908Z,58.64
2018-05-21T07:58:09.973Z,57.75
2018-05-21T07:59:09.944Z,57.51
2018-05-21T08:00:09.990Z,57.91
2018-05-21T08:01:09.933Z,58.09
2018-05-21T08:02:09.967Z,57.88
2018-05-21T08:03:09.960Z,58.01
2018-05-21T08:04:09.992Z,58.01
2018-05-21T08:05:09.983Z,57.84
2018-05-21T08:06:09.917Z,57.84
2018-05-21T08:07:09.941Z,57.42
2018-05-21T08:08:09.939Z,57.8
2018-05-21T08:09:09.998Z,57.3
2018-05-21T08:10:09.974Z,59.12
2018-05-21T08:11:09.927Z,57.71
2018-05-21T08:12:09.922Z,58.68
2018-05-21T08:13:09.961Z,58.49
2018-05-21T08:14:09.905Z,58.54
2018-05-21T08:15:10.157Z,57.43
2018-05-21T08:16:09.900Z,57.93
2018-05-21T08:17:09.926Z,57.56
2018-05-21T08:18:09.903Z,57.4
2018-05-21T08:19:09.911Z,58.31
2018-05-21T08:20:09.906Z,57.27
2018-05-21T08:21:09.922Z,56.88
2018-05-21T08:22:10.139Z,56.2
2018-05-21T08:23:09.962Z,56.16
2018-05-21T08:24:09.942Z,56.51
2018-05-21T08:25:09.955Z,56.91
2018-05-21T08:26:09.933Z,57.82
2018-05-21T08:27:09.921Z,56.78
2018-05-21T08:28:09.940Z,57.9
2018-05-21T08:29:09.925Z,57.29
2018-05-21T08:30:09.924Z,57.53
2018-05-21T08:31:09.963Z,57.36
2018-05-21T08:32:09.900Z,57.96
2018-05-21T08:33:09.934Z,56.92
2018-05-21T08:34:09.920Z,57.03
2018-05-21T08:35:09.906Z,57.63
2018-05-21T08:36:10.728Z,56.84
2018-05-21T08:37:09.927Z,57.01
2018-05-21T08:38:09.955Z,56.53
2018-05-21T08:39:10.308Z,57.33
2018-05-21T08:40:09.911Z,57.05
2018-05-21T08:41:09.921Z,58.21
2018-05-21T08:42:09.953Z,57.79
2018-05-21T08:43:09.977Z,57.33
2018-05-21T08:44:09.939Z,56.61
2018-05-21T08:45:10.578Z,57.09
2018-05-21T08:46:09.922Z,57.03
2018-05-21T08:47:09.976Z,57.76
2018-05-21T08:48:09.963Z,57.95
2018-05-21T08:49:09.942Z,57.9
2018-05-21T08:50:09.966Z,57.15
2018-05-21T08:51:09.911Z,58.63
2018-05-21T08:52:09.929Z,57.35
2018-05-21T08:53:10.113Z,58.01
2018-05-21T08:54:10.141Z,57.27
2018-05-21T08:55:10.012Z,57.62
2018-05-21T08:56:09.994Z,57.45
2018-05-21T08:57:09.956Z,57.12
2018-05-21T08:58:09.944Z,57.81
2018-05-21T08:59:09.994Z,57.28
2018-05-21T09:00:10.006Z,57.2
2018-05-21T09:01:09.957Z,56.32
2018-05-21T09:02:09.964Z,56.74
2018-05-21T09:03:09.957Z,56.88
2018-05-21T09:04:09.946Z,56.89
2018-05-21T09:05:09.971Z,57.3
2018-05-21T09:06:09.960Z,57.52
2018-05-21T09:07:10.294Z,57.03
2018-05-21T09:08:09.973Z,56.5
2018-05-21T09:09:09.982Z,57.12
2018-05-21T09:10:10.001Z,56.65
2018-05-21T09:11:09.944Z,57.01
2018-05-21T09:12:09.965Z,56.73
2018-05-21T09:13:09.981Z,57.81
2018-05-21T09:14:10.121Z,57.23
2018-05-21T09:15:09.952Z,58.46
2018-05-21T09:16:09.961Z,56.39
2018-05-21T09:17:09.952Z,56.86
2018-05-21T09:18:10.060Z,57.35
2018-05-21T09:19:09.979Z,57.52
2018-05-21T09:20:09.991Z,57.58
2018-05-21T09:21:09.936Z,57.39
2018-05-21T09:22:09.941Z,56.91
2018-05-21T09:23:09.958Z,57.77
2018-05-21T09:24:09.947Z,57.61
2018-05-21T09:25:09.977Z,57.68
2018-05-21T09:26:10.290Z,56.82
2018-05-21T09:27:09.951Z,56.78
2018-05-21T09:28:09.943Z,56.93
2018-05-21T09:29:09.960Z,57.06
2018-05-21T09:30:09.985Z,57.16
2018-05-21T09:31:10.164Z,56.52
2018-05-21T09:32:09.958Z,55.78
2018-05-21T09:33:09.990Z,55.93
2018-05-21T09:34:10.070Z,55.62
2018-05-21T09:35:09.948Z,55.28
2018-05-21T09:36:09.999Z,55.57
2018-05-21T09:37:09.993Z,56.25
2018-05-21T09:38:09.990Z,57.05
2018-05-21T09:39:09.996Z,55.83
2018-05-21T09:40:09.977Z,56.61
2018-05-21T09:41:09.951Z,56.97
2018-05-21T09:42:09.962Z,55.78
2018-05-21T09:43:09.968Z,56.08
2018-05-21T09:44:09.983Z,56.9
2018-05-21T09:45:09.975Z,56.16
2018-05-21T09:46:09.977Z,55.82
2018-05-21T09:47:09.976Z,56
2018-05-21T09:48:10.013Z,56.2
2018-05-21T09:49:09.979Z,55.28
2018-05-21T09:50:09.982Z,56.31
2018-05-21T09:51:10.035Z,55.43
2018-05-21T09:52:10.011Z,55.38
2018-05-21T09:53:09.996Z,56.45
2018-05-21T09:54:09.967Z,56.05
2018-05-21T09:55:09.955Z,56.2
2018-05-21T09:56:09.960Z,55.63
2018-05-21T09:57:09.963Z,55.92
2018-05-21T09:58:09.993Z,55.86
2018-05-21T09:59:09.997Z,55.06
2018-05-21T10:00:09.970Z,54.77
2018-05-21T10:01:10.157Z,53.71
2018-05-21T10:02:09.982Z,54.71
2018-05-21T10:03:09.982Z,55.91
2018-05-21T10:04:10.067Z,55.54
2018-05-21T10:05:10.077Z,53.59
2018-05-21T10:06:10.005Z,53.51
2018-05-21T10:07:10.099Z,52.71
2018-05-21T10:08:09.993Z,53.39
2018-05-21T10:09:10.111Z,53.18
2018-05-21T10:10:09.961Z,53.23
2018-05-21T10:11:10.015Z,53.53
2018-05-21T10:12:11.331Z,53.21
2018-05-21T10:13:09.971Z,53.81
2018-05-21T10:14:10.047Z,53.87
2018-05-21T10:15:10.143Z,53.92
2018-05-21T10:16:09.973Z,55.1
2018-05-21T10:17:10.293Z,54.21
2018-05-21T10:18:10.175Z,52.73
2018-05-21T10:19:09.995Z,52.7
2018-05-21T10:20:10.196Z,53.38
2018-05-21T10:21:10.185Z,52.93
2018-05-21T10:22:10.190Z,53.64
2018-05-21T10:23:10.097Z,53.19
2018-05-21T10:24:10.121Z,52.52
2018-05-21T10:25:10.117Z,52.77
2018-05-21T10:26:10.080Z,52.87
2018-05-21T10:27:10.145Z,53.58
2018-05-21T10:28:10.148Z,52.4
2018-05-21T10:29:10.145Z,53.39
2018-05-21T10:30:10.157Z,53.48
2018-05-21T10:31:10.148Z,54.04
2018-05-21T10:32:10.160Z,53.81
2018-05-21T10:33:10.816Z,54.06
2018-05-21T10:34:10.203Z,53.26
2018-05-21T10:35:10.044Z,53.46
2018-05-21T10:36:10.753Z,53
2018-05-21T10:37:10.225Z,53.48
2018-05-21T10:38:10.200Z,53.42
2018-05-21T10:39:10.102Z,53.01
2018-05-21T10:40:10.110Z,53.92
2018-05-21T10:41:10.122Z,52.99
2018-05-21T10:42:10.125Z,53.79
2018-05-21T10:43:09.992Z,53.12
2018-05-21T10:44:10.157Z,53.08
2018-05-21T10:45:10.221Z,52.56
2018-05-21T10:46:09.993Z,51.51
2018-05-21T10:47:10.159Z,50.64
2018-05-21T10:48:10.004Z,50.74
2018-05-21T10:49:10.178Z,52.1
2018-05-21T10:50:10.077Z,52.31
2018-05-21T10:51:10.023Z,51.87
2018-05-21T10:52:10.019Z,51.36
2018-05-21T10:53:10.052Z,52.54
2018-05-21T10:54:10.021Z,51.26
2018-05-21T10:55:10.246Z,52.1
2018-05-21T10:56:09.998Z,51.69
2018-05-21T10:57:10.072Z,51.42
2018-05-21T10:58:09.997Z,51.98
2018-05-21T10:59:10.072Z,51.93
2018-05-21T11:00:10.028Z,52.67
2018-05-21T11:01:09.995Z,52.36
2018-05-21T11:02:10.019Z,52.15
2018-05-21T11:03:10.003Z,51.21
2018-05-21T11:04:10.023Z,53.11
2018-05-21T11:05:10.024Z,50.83
2018-05-21T11:06:10.011Z,51.04
2018-05-21T11:07:10.027Z,50.61
2018-05-21T11:08:10.025Z,51.03
2018-05-21T11:09:10.022Z,50.54
2018-05-21T11:10:09.994Z,50.12
2018-05-21T11:11:10.022Z,50.81
2018-05-21T11:12:10.116Z,50.96
2018-05-21T11:13:10.083Z,51.49
2018-05-21T11:14:10.043Z,51.11
2018-05-21T11:15:09.996Z,51.13
2018-05-21T11:16:09.998Z,51.53
2018-05-21T11:17:10.039Z,51.17
2018-05-21T11:18:10.035Z,51.6
2018-05-21T11:19:10.173Z,51.6
2018-05-21T11:20:10.186Z,50.81
2018-05-21T11:21:10.036Z,51.66
2018-05-21T11:22:10.012Z,51.51
2018-05-21T11:23:10.018Z,51.51
2018-05-21T11:24:10.073Z,50.6
2018-05-21T11:25:10.119Z,50.67
2018-05-21T11:26:10.060Z,49.41
2018-05-21T11:27:10.024Z,49.24
2018-05-21T11:28:10.059Z,48.63
2018-05-21T11:29:10.094Z,48.54
2018-05-21T11:30:10.766Z,49.8
2018-05-21T11:31:10.258Z,49.87
2018-05-21T11:32:10.019Z,49.93
2018-05-21T11:33:10.046Z,50.67
2018-05-21T11:34:10.026Z,49.31
2018-05-21T11:35:10.127Z,50.82
2018-05-21T11:36:10.101Z,49.65
2018-05-21T11:37:10.022Z,50.36
2018-05-21T11:38:10.021Z,50.22
2018-05-21T11:39:10.109Z,50.05
2018-05-21T11:40:10.054Z,50.27
2018-05-21T11:41:10.073Z,50.01
2018-05-21T11:42:10.049Z,48.1
2018-05-21T11:43:10.018Z,48.51
2018-05-21T11:44:10.034Z,49.18
2018-05-21T11:45:10.082Z,48.72
2018-05-21T11:46:10.095Z,48.55
2018-05-21T11:47:10.047Z,47.71
2018-05-21T11:48:10.063Z,47.95
2018-05-21T11:49:10.025Z,48.75
2018-05-21T11:50:10.111Z,48.57
2018-05-21T11:51:10.191Z,48.92
2018-05-21T11:52:10.061Z,49.33
2018-05-21T11:53:10.074Z,48.48
2018-05-21T11:54:10.154Z,49.3
2018-05-21T11:55:10.216Z,49.28
2018-05-21T11:56:10.048Z,49.37
2018-05-21T11:57:10.226Z,49.88
2018-05-21T11:58:10.245Z,49.5
2018-05-21T11:59:10.049Z,48.3
2018-05-21T12:00:10.048Z,48.44
2018-05-21T12:01:10.050Z,49.07
2018-05-21T12:02:10.044Z,49.84
2018-05-21T12:03:10.075Z,49.14
2018-05-21T12:04:11.039Z,48.64
2018-05-21T12:05:10.061Z,48.4
2018-05-21T12:06:10.071Z,48.18
2018-05-21T12:07:10.137Z,47.1
2018-05-21T12:08:10.058Z,48.58
2018-05-21T12:09:10.056Z,48.45
2018-05-21T12:10:10.074Z,49.37
2018-05-21T12:11:15.241Z,48.74
2018-05-21T12:12:10.070Z,49.52
2018-05-21T12:13:10.052Z,49.43
2018-05-21T12:14:10.052Z,48.47
2018-05-21T12:15:10.076Z,46.94
2018-05-21T12:16:10.057Z,47.32
2018-05-21T12:17:10.092Z,47.34
2018-05-21T12:18:10.060Z,47.1
2018-05-21T12:19:10.068Z,47.29
2018-05-21T12:20:10.081Z,48.11
2018-05-21T12:21:10.195Z,47.21
2018-05-21T12:22:10.212Z,47.58
2018-05-21T12:23:10.106Z,46.87
2018-05-21T12:24:10.125Z,47.92
2018-05-21T12:25:10.061Z,47.47
2018-05-21T12:26:10.077Z,48.42
2018-05-21T12:27:10.154Z,48.34
2018-05-21T12:28:10.101Z,47.73
2018-05-21T12:29:10.129Z,47.05
2018-05-21T12:30:10.120Z,46.61
2018-05-21T12:31:10.269Z,46.35
2018-05-21T12:32:10.142Z,47.5
2018-05-21T12:33:10.134Z,47.52
2018-05-21T12:34:10.495Z,45.92
2018-05-21T12:35:10.088Z,47.35
2018-05-21T12:36:10.103Z,47.56
2018-05-21T12:37:10.153Z,46.82
2018-05-21T12:38:10.134Z,46.19
2018-05-21T12:39:10.141Z,45.59
2018-05-21T12:40:10.126Z,46.28
2018-05-21T12:41:10.083Z,46.74
2018-05-21T12:42:10.123Z,47.02
2018-05-21T12:43:10.127Z,45.96
2018-05-21T12:44:10.393Z,46.91
2018-05-21T12:45:10.103Z,47.61
2018-05-21T12:46:10.155Z,46.19
2018-05-21T12:47:10.062Z,46.61
2018-05-21T12:48:10.103Z,45.24
2018-05-21T12:49:10.175Z,45.23
2018-05-21T12:50:10.090Z,45.37
2018-05-21T12:51:10.071Z,46.58
2018-05-21T12:52:10.128Z,46.35
2018-05-21T12:53:10.074Z,47.08
2018-05-21T12:54:10.093Z,47.63
2018-05-21T12:55:10.118Z,47.3
2018-05-21T12:56:10.084Z,46.67